Royal — WDD3653 — position and weather

sailwx.info

Track history (hours):
 
Tides and Currents Weather Stations Pressure Air Temp Water Temp Dewpoint Dewpoint Depression Visibility Wind Speed Wind Dir Waves Ship Positions

Royal

Owner: GulfMark Americas, Inc., Saint Rose, LA. More information available from US FCC via Universal Licensing System and Coast Guard Vessel Documentation Center.

Last reported at 2014-Oct-25 19:33 UTC. Time now 2014-Oct-25 19:46 UTC.
Position N 29°39' W 091°07'.

Length 64 m.

Type: Cargo ship. MMSI: 366964490.

Date/timePositionNaut miles runAvg speedWind from/ knotsBaromVisibWave heightAir tempDewpointWater temp
2014-Oct-25 19:33N 29°39' W 091°07'0 0.0
2014-Oct-25 18:33N 29°39' W 091°07'0 0.0
2014-Oct-25 17:33N 29°39' W 091°07'0 0.0
2014-Oct-25 16:33N 29°39' W 091°07'0 0.0
2014-Oct-25 15:33N 29°39' W 091°07'0 0.0
2014-Oct-25 14:33N 29°39' W 091°07'0 0.0
2014-Oct-25 13:33N 29°39' W 091°07'0 0.0
2014-Oct-25 12:33N 29°39' W 091°07'0 0.0
2014-Oct-25 11:33N 29°39' W 091°07'0 0.0
2014-Oct-25 10:33N 29°39' W 091°07'0 0.0
2014-Oct-25 09:33N 29°39' W 091°07'0 0.0
2014-Oct-25 08:33N 29°39' W 091°07'0 0.0
2014-Oct-25 07:33N 29°39' W 091°07'0 0.0
2014-Oct-25 06:33N 29°39' W 091°07'0 0.0
2014-Oct-25 05:33N 29°39' W 091°07'0 0.0
2014-Oct-25 04:33N 29°39' W 091°07'0 0.0
2014-Oct-25 03:33N 29°39' W 091°07'0 0.0
2014-Oct-25 02:33N 29°39' W 091°07'0 0.0
2014-Oct-25 01:33N 29°39' W 091°07'0 0.0
2014-Oct-25 00:33N 29°39' W 091°07'0 0.0
2014-Oct-24 23:33N 29°39' W 091°07'0 0.0
2014-Oct-24 22:33N 29°39' W 091°07'0 0.0
2014-Oct-24 21:33N 29°39' W 091°07'0 0.0
2014-Oct-24 20:33N 29°39' W 091°07'0 0.0
2014-Oct-24 19:33N 29°39' W 091°07'0 0.0
2014-Oct-24 18:33N 29°39' W 091°07'0 0.0
2014-Oct-24 17:33N 29°39' W 091°07'0 0.0
2014-Oct-24 16:33N 29°39' W 091°07'0 0.0
2014-Oct-24 15:33N 29°39' W 091°07'0 0.0
2014-Oct-24 14:33N 29°39' W 091°07'0 0.2
2014-Oct-24 13:33N 29°39' W 091°07'3 2.5
2014-Oct-24 12:33N 29°37' W 091°05'3 3.1
2014-Oct-24 11:33N 29°37' W 091°08'2 1.6
2014-Oct-24 10:33N 29°36' W 091°10'2 2.5
2014-Oct-24 09:33N 29°34' W 091°12'4 3.8
2014-Oct-24 08:33N 29°32' W 091°16'4 4.0
2014-Oct-24 07:33N 29°28' W 091°17'6 5.6
2014-Oct-24 06:33N 29°24' W 091°21'5 5.0
2014-Oct-24 05:32N 29°20' W 091°25'5 5.1
2014-Oct-24 04:33N 29°16' W 091°29'6 5.3
2014-Oct-24 03:30N 29°12' W 091°32'11 8.2
2014-Oct-24 02:10N 29°01' W 091°36'6 0.2
2014-Oct-23 00:16N 28°56' W 091°34'30 6.4
2014-Oct-22 19:33N 29°24' W 091°21'8 8.1
2014-Oct-22 18:33N 29°31' W 091°17'6 5.6
2014-Oct-22 17:33N 29°35' W 091°12'5 4.6
2014-Oct-22 16:33N 29°37' W 091°07'2 1.9
2014-Oct-22 15:33N 29°39' W 091°07'0 0.4
2014-Oct-22 14:33N 29°39' W 091°07'0 0.0
2014-Oct-22 13:33N 29°39' W 091°07'0 0.0
2014-Oct-22 12:33N 29°39' W 091°07'0 0.0
2014-Oct-22 11:33N 29°39' W 091°07'0 0.0
2014-Oct-22 10:33N 29°39' W 091°07'0 0.0
2014-Oct-22 09:33N 29°39' W 091°07'0 0.0
2014-Oct-22 08:33N 29°39' W 091°07'0 0.0
2014-Oct-22 07:33N 29°39' W 091°07'0 0.0
2014-Oct-22 06:33N 29°39' W 091°07'0 0.0
2014-Oct-22 05:33N 29°39' W 091°07'0 0.0
2014-Oct-22 04:33N 29°39' W 091°07'0 0.0
2014-Oct-22 03:33N 29°39' W 091°07'0 0.0
2014-Oct-22 02:33N 29°39' W 091°07'0 0.0
2014-Oct-22 01:33N 29°39' W 091°07'0 0.0
2014-Oct-22 00:33N 29°39' W 091°07'0 0.0
2014-Oct-21 23:33N 29°39' W 091°07'0 0.0
2014-Oct-21 22:33N 29°39' W 091°07'0 0.0
2014-Oct-21 21:33N 29°39' W 091°07'0 0.0
2014-Oct-21 20:33N 29°39' W 091°07'0 0.0
2014-Oct-21 19:33N 29°39' W 091°07'0 0.0
2014-Oct-21 18:33N 29°39' W 091°07'0 0.0
2014-Oct-21 17:33N 29°39' W 091°07'0 0.0
2014-Oct-21 16:33N 29°39' W 091°07'0 0.0
2014-Oct-21 15:33N 29°39' W 091°07'0 0.1
2014-Oct-21 14:34N 29°39' W 091°08'0 0.1
2014-Oct-21 13:33N 29°39' W 091°07'0 0.0
2014-Oct-21 12:33N 29°39' W 091°07'0 0.0
2014-Oct-21 11:33N 29°39' W 091°07'0 0.0
2014-Oct-21 10:33N 29°39' W 091°07'0 0.0
2014-Oct-21 09:33N 29°39' W 091°07'0 0.0
2014-Oct-21 08:33N 29°39' W 091°07'0 0.0
2014-Oct-21 07:33N 29°39' W 091°07'0 0.0
2014-Oct-21 06:33N 29°39' W 091°07'0 0.0
2014-Oct-21 05:33N 29°39' W 091°07'0 0.0
2014-Oct-21 04:33N 29°39' W 091°07'0 0.0
2014-Oct-21 03:33N 29°39' W 091°07'0 0.0
2014-Oct-21 02:33N 29°39' W 091°07'0 0.0
2014-Oct-21 01:33N 29°39' W 091°07'0 0.0
2014-Oct-21 00:33N 29°39' W 091°07'0 0.0
2014-Oct-20 23:33N 29°39' W 091°07'0 0.0
2014-Oct-20 22:33N 29°39' W 091°07'0 0.0
2014-Oct-20 21:33N 29°39' W 091°07'0 0.0
2014-Oct-20 20:33N 29°39' W 091°07'0 0.0
2014-Oct-20 19:33N 29°39' W 091°07'0 0.0
2014-Oct-20 18:33N 29°39' W 091°07'0 0.0
2014-Oct-20 17:33N 29°39' W 091°07'0 0.0
2014-Oct-20 16:33N 29°39' W 091°07'0 0.0
2014-Oct-20 15:33N 29°39' W 091°07'0 0.0
2014-Oct-20 14:33N 29°39' W 091°07'0 0.0
2014-Oct-20 13:33N 29°39' W 091°07'0 0.0
2014-Oct-20 12:33N 29°39' W 091°07'0 0.0
2014-Oct-20 11:33N 29°39' W 091°07'0 0.0
2014-Oct-20 10:33N 29°39' W 091°07'0 0.0
2014-Oct-20 09:33N 29°39' W 091°07'0 0.0
2014-Oct-20 08:33N 29°39' W 091°07'0 0.0
2014-Oct-20 07:33N 29°39' W 091°07'0 0.0
2014-Oct-20 06:33N 29°39' W 091°07'0 0.0
2014-Oct-20 05:33N 29°39' W 091°07'0 0.0
2014-Oct-20 04:33N 29°39' W 091°07'0 0.0
2014-Oct-20 03:33N 29°39' W 091°07'0 0.0
2014-Oct-20 02:33N 29°39' W 091°07'0 0.0
2014-Oct-20 01:33N 29°39' W 091°07'0 0.0
2014-Oct-20 00:33N 29°39' W 091°07'0 0.0
2014-Oct-19 23:33N 29°39' W 091°07'0 0.0
2014-Oct-19 22:33N 29°39' W 091°07'0 0.0
2014-Oct-19 21:33N 29°39' W 091°07'0 0.0
2014-Oct-19 20:33N 29°39' W 091°07'0 0.0
2014-Oct-19 19:33N 29°39' W 091°07'0 0.0
2014-Oct-19 18:33N 29°39' W 091°07'0 0.0
2014-Oct-19 17:33N 29°39' W 091°07'0 0.0
2014-Oct-19 16:33N 29°39' W 091°07'0 0.0
2014-Oct-19 15:33N 29°39' W 091°07'0 0.0
2014-Oct-19 14:33N 29°39' W 091°07'0 0.0
2014-Oct-19 13:33N 29°39' W 091°07'0 0.0
2014-Oct-19 12:33N 29°39' W 091°07'0 0.0
2014-Oct-19 11:33N 29°39' W 091°07'0 0.0
2014-Oct-19 10:33N 29°39' W 091°07'0 0.0
2014-Oct-19 09:33N 29°39' W 091°07'0 0.0
2014-Oct-19 08:33N 29°39' W 091°07'0 0.0
2014-Oct-19 07:33N 29°39' W 091°07'0 0.0
2014-Oct-19 06:33N 29°39' W 091°07'0 0.0
2014-Oct-19 05:33N 29°39' W 091°07'0 0.0
2014-Oct-19 04:33N 29°39' W 091°07'0 0.0
2014-Oct-19 03:33N 29°39' W 091°07'0 0.0
2014-Oct-19 02:33N 29°39' W 091°07'0 0.0
2014-Oct-19 01:33N 29°39' W 091°07'0 0.0
2014-Oct-19 00:33N 29°39' W 091°07'0 0.0
2014-Oct-18 23:33N 29°39' W 091°07'0 0.0
2014-Oct-18 22:33N 29°39' W 091°07'0 0.0
2014-Oct-18 21:33N 29°39' W 091°07'0 0.0
2014-Oct-18 20:33N 29°39' W 091°07'0 0.0
2014-Oct-18 19:33N 29°39' W 091°07'0 0.0
2014-Oct-18 18:33N 29°39' W 091°07'1 0.8
2014-Oct-18 17:33N 29°39' W 091°07'2 1.7
2014-Oct-18 16:33N 29°37' W 091°06'1 0.8
2014-Oct-18 15:33N 29°37' W 091°07'1 1.4
2014-Oct-18 14:33N 29°38' W 091°07'1 1.2
2014-Oct-18 13:33N 29°39' W 091°07'0 0.0
2014-Oct-18 12:33N 29°39' W 091°07'0 0.0
2014-Oct-18 11:33N 29°39' W 091°07'0 0.0
2014-Oct-18 10:33N 29°39' W 091°07'0 0.0
2014-Oct-18 09:33N 29°39' W 091°07'0 0.0
2014-Oct-18 08:33N 29°39' W 091°07'0 0.0
2014-Oct-18 07:33N 29°39' W 091°07'0 0.0
2014-Oct-18 06:33N 29°39' W 091°07'0 0.0
2014-Oct-18 05:33N 29°39' W 091°07'0 0.0
2014-Oct-18 04:33N 29°39' W 091°07'0 0.0
2014-Oct-18 03:33N 29°39' W 091°07'0 0.0
2014-Oct-18 02:33N 29°39' W 091°07'0 0.0
2014-Oct-18 01:33N 29°39' W 091°07'0 0.0
2014-Oct-18 00:33N 29°39' W 091°07'0 0.0
2014-Oct-17 23:33N 29°39' W 091°07'0 0.0
2014-Oct-17 22:33N 29°39' W 091°07'0 0.0
2014-Oct-17 21:33N 29°39' W 091°07'0 0.0
2014-Oct-17 20:33N 29°39' W 091°07'0 0.0
2014-Oct-17 19:33N 29°39' W 091°07'0 0.0
2014-Oct-17 18:33N 29°39' W 091°07'0 0.0
2014-Oct-17 17:33N 29°39' W 091°07'0 0.0
2014-Oct-17 16:33N 29°39' W 091°07'0 0.0
2014-Oct-17 15:33N 29°39' W 091°07'0 0.0
2014-Oct-17 14:33N 29°39' W 091°07'0 0.0
2014-Oct-17 13:33N 29°39' W 091°07'0 0.0
2014-Oct-17 12:33N 29°39' W 091°07'0 0.0
2014-Oct-17 11:34N 29°39' W 091°07'0 0.0
2014-Oct-17 10:33N 29°39' W 091°07'0 0.0
2014-Oct-17 09:33N 29°39' W 091°07'0 0.0
2014-Oct-17 08:33N 29°39' W 091°07'0 0.0
2014-Oct-17 07:33N 29°39' W 091°07'0 0.0
2014-Oct-17 06:33N 29°39' W 091°07'0 0.0
2014-Oct-17 05:33N 29°39' W 091°07'0 0.0
2014-Oct-17 04:33N 29°39' W 091°07'0 0.0
2014-Oct-17 03:33N 29°39' W 091°07'0 0.0
2014-Oct-17 02:33N 29°39' W 091°07'0 0.0
2014-Oct-17 01:33N 29°39' W 091°07'0 0.0
2014-Oct-17 00:33N 29°39' W 091°07'0 0.0
2014-Oct-16 23:34N 29°39' W 091°07'0 0.0
2014-Oct-16 22:33N 29°39' W 091°07'0 0.0
2014-Oct-16 21:33N 29°39' W 091°07'0 0.0
2014-Oct-16 20:05N 29°39' W 091°07'0 0.0
2014-Oct-16 19:32N 29°39' W 091°07'0 0.0
2014-Oct-16 18:29N 29°39' W 091°07'0 0.0
2014-Oct-16 17:23N 29°39' W 091°07'0 0.0
2014-Oct-16 16:32N 29°39' W 091°07'0 0.0
2014-Oct-16 15:32N 29°39' W 091°07'0 0.0
2014-Oct-16 14:32N 29°39' W 091°07'0 0.0
2014-Oct-16 13:32N 29°39' W 091°07'0 0.0
2014-Oct-16 12:32N 29°39' W 091°07'0 0.0
2014-Oct-16 11:32N 29°39' W 091°07'0 0.0
2014-Oct-16 10:32N 29°39' W 091°07'0 0.0
2014-Oct-16 09:32N 29°39' W 091°07'0 0.0
2014-Oct-16 08:32N 29°39' W 091°07'0 0.0
2014-Oct-16 07:32N 29°39' W 091°07'0 0.0
2014-Oct-16 06:32N 29°39' W 091°07'0 0.0
2014-Oct-16 05:32N 29°39' W 091°07'0 0.0
2014-Oct-16 04:32N 29°39' W 091°07'0 0.0
2014-Oct-16 03:32N 29°39' W 091°07'0 0.0
2014-Oct-16 02:32N 29°39' W 091°07'0 0.0
2014-Oct-16 01:32N 29°39' W 091°07'0 0.0
2014-Oct-16 00:32N 29°39' W 091°07'0 0.0
2014-Oct-15 23:32N 29°39' W 091°07'0 0.0
2014-Oct-15 22:31N 29°39' W 091°07'0 0.0
2014-Oct-15 21:28N 29°39' W 091°07'0 0.0
2014-Oct-15 20:28N 29°39' W 091°07'  
Track history (hours):
 
Tides and Currents Weather Stations Pressure Air Temp Water Temp Dewpoint Dewpoint Depression Visibility Wind Speed Wind Dir Waves Ship Positions

Royal

Owner: GulfMark Americas, Inc., Saint Rose, LA. More information available from US FCC via Universal Licensing System and Coast Guard Vessel Documentation Center.

Last reported at 2014-Oct-25 19:33 UTC. Time now 2014-Oct-25 19:46 UTC.
Position N 29°39' W 091°07'.

Length 64 m.

Type: Cargo ship. MMSI: 366964490.

Date/timePositionNaut miles runAvg speedWind from/ knotsBaromVisibWave heightAir tempDewpointWater temp
2014-Oct-25 19:33N 29°39' W 091°07'0 0.0
2014-Oct-25 18:33N 29°39' W 091°07'0 0.0
2014-Oct-25 17:33N 29°39' W 091°07'0 0.0
2014-Oct-25 16:33N 29°39' W 091°07'0 0.0
2014-Oct-25 15:33N 29°39' W 091°07'0 0.0
2014-Oct-25 14:33N 29°39' W 091°07'0 0.0
2014-Oct-25 13:33N 29°39' W 091°07'0 0.0
2014-Oct-25 12:33N 29°39' W 091°07'0 0.0
2014-Oct-25 11:33N 29°39' W 091°07'0 0.0
2014-Oct-25 10:33N 29°39' W 091°07'0 0.0
2014-Oct-25 09:33N 29°39' W 091°07'0 0.0
2014-Oct-25 08:33N 29°39' W 091°07'0 0.0
2014-Oct-25 07:33N 29°39' W 091°07'0 0.0
2014-Oct-25 06:33N 29°39' W 091°07'0 0.0
2014-Oct-25 05:33N 29°39' W 091°07'0 0.0
2014-Oct-25 04:33N 29°39' W 091°07'0 0.0
2014-Oct-25 03:33N 29°39' W 091°07'0 0.0
2014-Oct-25 02:33N 29°39' W 091°07'0 0.0
2014-Oct-25 01:33N 29°39' W 091°07'0 0.0
2014-Oct-25 00:33N 29°39' W 091°07'0 0.0
2014-Oct-24 23:33N 29°39' W 091°07'0 0.0
2014-Oct-24 22:33N 29°39' W 091°07'0 0.0
2014-Oct-24 21:33N 29°39' W 091°07'0 0.0
2014-Oct-24 20:33N 29°39' W 091°07'0 0.0
2014-Oct-24 19:33N 29°39' W 091°07'0 0.0
2014-Oct-24 18:33N 29°39' W 091°07'0 0.0
2014-Oct-24 17:33N 29°39' W 091°07'0 0.0
2014-Oct-24 16:33N 29°39' W 091°07'0 0.0
2014-Oct-24 15:33N 29°39' W 091°07'0 0.0
2014-Oct-24 14:33N 29°39' W 091°07'0 0.2
2014-Oct-24 13:33N 29°39' W 091°07'3 2.5
2014-Oct-24 12:33N 29°37' W 091°05'3 3.1
2014-Oct-24 11:33N 29°37' W 091°08'2 1.6
2014-Oct-24 10:33N 29°36' W 091°10'2 2.5
2014-Oct-24 09:33N 29°34' W 091°12'4 3.8
2014-Oct-24 08:33N 29°32' W 091°16'4 4.0
2014-Oct-24 07:33N 29°28' W 091°17'6 5.6
2014-Oct-24 06:33N 29°24' W 091°21'5 5.0
2014-Oct-24 05:32N 29°20' W 091°25'5 5.1
2014-Oct-24 04:33N 29°16' W 091°29'6 5.3
2014-Oct-24 03:30N 29°12' W 091°32'11 8.2
2014-Oct-24 02:10N 29°01' W 091°36'6 0.2
2014-Oct-23 00:16N 28°56' W 091°34'30 6.4
2014-Oct-22 19:33N 29°24' W 091°21'8 8.1
2014-Oct-22 18:33N 29°31' W 091°17'6 5.6
2014-Oct-22 17:33N 29°35' W 091°12'5 4.6
2014-Oct-22 16:33N 29°37' W 091°07'2 1.9
2014-Oct-22 15:33N 29°39' W 091°07'0 0.4
2014-Oct-22 14:33N 29°39' W 091°07'0 0.0
2014-Oct-22 13:33N 29°39' W 091°07'0 0.0
2014-Oct-22 12:33N 29°39' W 091°07'0 0.0
2014-Oct-22 11:33N 29°39' W 091°07'0 0.0
2014-Oct-22 10:33N 29°39' W 091°07'0 0.0
2014-Oct-22 09:33N 29°39' W 091°07'0 0.0
2014-Oct-22 08:33N 29°39' W 091°07'0 0.0
2014-Oct-22 07:33N 29°39' W 091°07'0 0.0
2014-Oct-22 06:33N 29°39' W 091°07'0 0.0
2014-Oct-22 05:33N 29°39' W 091°07'0 0.0
2014-Oct-22 04:33N 29°39' W 091°07'0 0.0
2014-Oct-22 03:33N 29°39' W 091°07'0 0.0
2014-Oct-22 02:33N 29°39' W 091°07'0 0.0
2014-Oct-22 01:33N 29°39' W 091°07'0 0.0
2014-Oct-22 00:33N 29°39' W 091°07'0 0.0
2014-Oct-21 23:33N 29°39' W 091°07'0 0.0
2014-Oct-21 22:33N 29°39' W 091°07'0 0.0
2014-Oct-21 21:33N 29°39' W 091°07'0 0.0
2014-Oct-21 20:33N 29°39' W 091°07'0 0.0
2014-Oct-21 19:33N 29°39' W 091°07'0 0.0
2014-Oct-21 18:33N 29°39' W 091°07'0 0.0
2014-Oct-21 17:33N 29°39' W 091°07'0 0.0
2014-Oct-21 16:33N 29°39' W 091°07'0 0.0
2014-Oct-21 15:33N 29°39' W 091°07'0 0.1
2014-Oct-21 14:34N 29°39' W 091°08'0 0.1
2014-Oct-21 13:33N 29°39' W 091°07'0 0.0
2014-Oct-21 12:33N 29°39' W 091°07'0 0.0
2014-Oct-21 11:33N 29°39' W 091°07'0 0.0
2014-Oct-21 10:33N 29°39' W 091°07'0 0.0
2014-Oct-21 09:33N 29°39' W 091°07'0 0.0
2014-Oct-21 08:33N 29°39' W 091°07'0 0.0
2014-Oct-21 07:33N 29°39' W 091°07'0 0.0
2014-Oct-21 06:33N 29°39' W 091°07'0 0.0
2014-Oct-21 05:33N 29°39' W 091°07'0 0.0
2014-Oct-21 04:33N 29°39' W 091°07'0 0.0
2014-Oct-21 03:33N 29°39' W 091°07'0 0.0
2014-Oct-21 02:33N 29°39' W 091°07'0 0.0
2014-Oct-21 01:33N 29°39' W 091°07'0 0.0
2014-Oct-21 00:33N 29°39' W 091°07'0 0.0
2014-Oct-20 23:33N 29°39' W 091°07'0 0.0
2014-Oct-20 22:33N 29°39' W 091°07'0 0.0
2014-Oct-20 21:33N 29°39' W 091°07'0 0.0
2014-Oct-20 20:33N 29°39' W 091°07'0 0.0
2014-Oct-20 19:33N 29°39' W 091°07'0 0.0
2014-Oct-20 18:33N 29°39' W 091°07'0 0.0
2014-Oct-20 17:33N 29°39' W 091°07'0 0.0
2014-Oct-20 16:33N 29°39' W 091°07'0 0.0
2014-Oct-20 15:33N 29°39' W 091°07'0 0.0
2014-Oct-20 14:33N 29°39' W 091°07'0 0.0
2014-Oct-20 13:33N 29°39' W 091°07'0 0.0
2014-Oct-20 12:33N 29°39' W 091°07'0 0.0
2014-Oct-20 11:33N 29°39' W 091°07'0 0.0
2014-Oct-20 10:33N 29°39' W 091°07'0 0.0
2014-Oct-20 09:33N 29°39' W 091°07'0 0.0
2014-Oct-20 08:33N 29°39' W 091°07'0 0.0
2014-Oct-20 07:33N 29°39' W 091°07'0 0.0
2014-Oct-20 06:33N 29°39' W 091°07'0 0.0
2014-Oct-20 05:33N 29°39' W 091°07'0 0.0
2014-Oct-20 04:33N 29°39' W 091°07'0 0.0
2014-Oct-20 03:33N 29°39' W 091°07'0 0.0
2014-Oct-20 02:33N 29°39' W 091°07'0 0.0
2014-Oct-20 01:33N 29°39' W 091°07'0 0.0
2014-Oct-20 00:33N 29°39' W 091°07'0 0.0
2014-Oct-19 23:33N 29°39' W 091°07'0 0.0
2014-Oct-19 22:33N 29°39' W 091°07'0 0.0
2014-Oct-19 21:33N 29°39' W 091°07'0 0.0
2014-Oct-19 20:33N 29°39' W 091°07'0 0.0
2014-Oct-19 19:33N 29°39' W 091°07'0 0.0
2014-Oct-19 18:33N 29°39' W 091°07'0 0.0
2014-Oct-19 17:33N 29°39' W 091°07'0 0.0
2014-Oct-19 16:33N 29°39' W 091°07'0 0.0
2014-Oct-19 15:33N 29°39' W 091°07'0 0.0
2014-Oct-19 14:33N 29°39' W 091°07'0 0.0
2014-Oct-19 13:33N 29°39' W 091°07'0 0.0
2014-Oct-19 12:33N 29°39' W 091°07'0 0.0
2014-Oct-19 11:33N 29°39' W 091°07'0 0.0
2014-Oct-19 10:33N 29°39' W 091°07'0 0.0
2014-Oct-19 09:33N 29°39' W 091°07'0 0.0
2014-Oct-19 08:33N 29°39' W 091°07'0 0.0
2014-Oct-19 07:33N 29°39' W 091°07'0 0.0
2014-Oct-19 06:33N 29°39' W 091°07'0 0.0
2014-Oct-19 05:33N 29°39' W 091°07'0 0.0
2014-Oct-19 04:33N 29°39' W 091°07'0 0.0
2014-Oct-19 03:33N 29°39' W 091°07'0 0.0
2014-Oct-19 02:33N 29°39' W 091°07'0 0.0
2014-Oct-19 01:33N 29°39' W 091°07'0 0.0
2014-Oct-19 00:33N 29°39' W 091°07'0 0.0
2014-Oct-18 23:33N 29°39' W 091°07'0 0.0
2014-Oct-18 22:33N 29°39' W 091°07'0 0.0
2014-Oct-18 21:33N 29°39' W 091°07'0 0.0
2014-Oct-18 20:33N 29°39' W 091°07'0 0.0
2014-Oct-18 19:33N 29°39' W 091°07'0 0.0
2014-Oct-18 18:33N 29°39' W 091°07'1 0.8
2014-Oct-18 17:33N 29°39' W 091°07'2 1.7
2014-Oct-18 16:33N 29°37' W 091°06'1 0.8
2014-Oct-18 15:33N 29°37' W 091°07'1 1.4
2014-Oct-18 14:33N 29°38' W 091°07'1 1.2
2014-Oct-18 13:33N 29°39' W 091°07'0 0.0
2014-Oct-18 12:33N 29°39' W 091°07'0 0.0
2014-Oct-18 11:33N 29°39' W 091°07'0 0.0
2014-Oct-18 10:33N 29°39' W 091°07'0 0.0
2014-Oct-18 09:33N 29°39' W 091°07'0 0.0
2014-Oct-18 08:33N 29°39' W 091°07'0 0.0
2014-Oct-18 07:33N 29°39' W 091°07'0 0.0
2014-Oct-18 06:33N 29°39' W 091°07'0 0.0
2014-Oct-18 05:33N 29°39' W 091°07'0 0.0
2014-Oct-18 04:33N 29°39' W 091°07'0 0.0
2014-Oct-18 03:33N 29°39' W 091°07'0 0.0
2014-Oct-18 02:33N 29°39' W 091°07'0 0.0
2014-Oct-18 01:33N 29°39' W 091°07'0 0.0
2014-Oct-18 00:33N 29°39' W 091°07'0 0.0
2014-Oct-17 23:33N 29°39' W 091°07'0 0.0
2014-Oct-17 22:33N 29°39' W 091°07'0 0.0
2014-Oct-17 21:33N 29°39' W 091°07'0 0.0
2014-Oct-17 20:33N 29°39' W 091°07'0 0.0
2014-Oct-17 19:33N 29°39' W 091°07'0 0.0
2014-Oct-17 18:33N 29°39' W 091°07'0 0.0
2014-Oct-17 17:33N 29°39' W 091°07'0 0.0
2014-Oct-17 16:33N 29°39' W 091°07'0 0.0
2014-Oct-17 15:33N 29°39' W 091°07'0 0.0
2014-Oct-17 14:33N 29°39' W 091°07'0 0.0
2014-Oct-17 13:33N 29°39' W 091°07'0 0.0
2014-Oct-17 12:33N 29°39' W 091°07'0 0.0
2014-Oct-17 11:34N 29°39' W 091°07'0 0.0
2014-Oct-17 10:33N 29°39' W 091°07'0 0.0
2014-Oct-17 09:33N 29°39' W 091°07'0 0.0
2014-Oct-17 08:33N 29°39' W 091°07'0 0.0
2014-Oct-17 07:33N 29°39' W 091°07'0 0.0
2014-Oct-17 06:33N 29°39' W 091°07'0 0.0
2014-Oct-17 05:33N 29°39' W 091°07'0 0.0
2014-Oct-17 04:33N 29°39' W 091°07'0 0.0
2014-Oct-17 03:33N 29°39' W 091°07'0 0.0
2014-Oct-17 02:33N 29°39' W 091°07'0 0.0
2014-Oct-17 01:33N 29°39' W 091°07'0 0.0
2014-Oct-17 00:33N 29°39' W 091°07'0 0.0
2014-Oct-16 23:34N 29°39' W 091°07'0 0.0
2014-Oct-16 22:33N 29°39' W 091°07'0 0.0
2014-Oct-16 21:33N 29°39' W 091°07'0 0.0
2014-Oct-16 20:05N 29°39' W 091°07'0 0.0
2014-Oct-16 19:32N 29°39' W 091°07'0 0.0
2014-Oct-16 18:29N 29°39' W 091°07'0 0.0
2014-Oct-16 17:23N 29°39' W 091°07'0 0.0
2014-Oct-16 16:32N 29°39' W 091°07'0 0.0
2014-Oct-16 15:32N 29°39' W 091°07'0 0.0
2014-Oct-16 14:32N 29°39' W 091°07'0 0.0
2014-Oct-16 13:32N 29°39' W 091°07'0 0.0
2014-Oct-16 12:32N 29°39' W 091°07'0 0.0
2014-Oct-16 11:32N 29°39' W 091°07'0 0.0
2014-Oct-16 10:32N 29°39' W 091°07'0 0.0
2014-Oct-16 09:32N 29°39' W 091°07'0 0.0
2014-Oct-16 08:32N 29°39' W 091°07'0 0.0
2014-Oct-16 07:32N 29°39' W 091°07'0 0.0
2014-Oct-16 06:32N 29°39' W 091°07'0 0.0
2014-Oct-16 05:32N 29°39' W 091°07'0 0.0
2014-Oct-16 04:32N 29°39' W 091°07'0 0.0
2014-Oct-16 03:32N 29°39' W 091°07'0 0.0
2014-Oct-16 02:32N 29°39' W 091°07'0 0.0
2014-Oct-16 01:32N 29°39' W 091°07'0 0.0
2014-Oct-16 00:32N 29°39' W 091°07'0 0.0
2014-Oct-15 23:32N 29°39' W 091°07'0 0.0
2014-Oct-15 22:31N 29°39' W 091°07'0 0.0
2014-Oct-15 21:28N 29°39' W 091°07'0 0.0
2014-Oct-15 20:28N 29°39' W 091°07'  

Dump ship's entire track history